Atlanta, Georgia
Traffic Map
Current Weather Conditions
Atlanta, Georgia
Few Clouds
Few Clouds
80°
Feels Like: 85°
Wind Chill: 80° Ceiling: Unl
Heat Index: 85° Visibility: 10mi
Dew Point: 74° Wind: 8mph
Humidity: 81% Direction: 270° (W)
Pressure: 30in Gusts: 0mph
Raw Report DataKATL 231252Z 27007KT 10SM FEW250 27/23 A3000 RMK AO2 SLP147 T02670233
Traffic Incident Summary
Active as of:
Severity:
Category:
InformationThere was an issue retrieving the traffic information for this location. Please try a different location or try again shortly.
Advertisements
Track Severe Weather on mobile